createdAt,value
2022-08-26T00:00:53.332Z,19.50
2022-08-26T00:03:22.024Z,19.50
2022-08-26T00:05:51.256Z,19.40
2022-08-26T00:08:21.399Z,19.40
2022-08-26T00:10:51.346Z,19.40
2022-08-26T00:13:19.826Z,19.40
2022-08-26T00:15:48.356Z,19.30
2022-08-26T00:18:22.198Z,19.30
2022-08-26T00:20:51.427Z,19.30
2022-08-26T00:23:20.035Z,19.30
2022-08-26T00:25:54.578Z,19.30
2022-08-26T00:28:25.448Z,19.20
2022-08-26T00:30:54.329Z,19.20
2022-08-26T00:33:23.101Z,19.20
2022-08-26T00:35:51.886Z,19.20
2022-08-26T00:38:22.271Z,19.10
2022-08-26T00:40:56.442Z,19.10
2022-08-26T00:43:26.816Z,19.10
2022-08-26T00:46:00.738Z,19.00
2022-08-26T00:48:33.864Z,19.00
2022-08-26T00:51:06.028Z,18.90
2022-08-26T00:53:41.480Z,18.90
2022-08-26T00:56:21.645Z,18.90
2022-08-26T00:58:51.199Z,18.80
2022-08-26T01:01:23.178Z,18.80
2022-08-26T01:04:03.033Z,18.80
2022-08-26T01:06:31.926Z,18.80
2022-08-26T01:09:00.656Z,18.80
2022-08-26T01:11:34.268Z,18.90
2022-08-26T01:14:05.995Z,18.80
2022-08-26T01:16:35.694Z,18.80
2022-08-26T01:19:10.914Z,18.80
2022-08-26T01:21:45.526Z,18.80
2022-08-26T01:24:15.421Z,18.80
2022-08-26T01:26:45.812Z,18.70
2022-08-26T01:29:19.012Z,18.70
2022-08-26T01:31:53.136Z,18.70
2022-08-26T01:34:25.873Z,18.70
2022-08-26T01:36:59.875Z,18.70
2022-08-26T01:39:30.347Z,18.70
2022-08-26T01:42:02.966Z,18.70
2022-08-26T01:44:40.458Z,18.70
2022-08-26T01:47:10.965Z,18.70
2022-08-26T01:49:40.006Z,18.70
2022-08-26T01:52:11.297Z,18.70
2022-08-26T01:54:42.886Z,18.70
2022-08-26T01:57:16.447Z,18.70
2022-08-26T01:59:45.017Z,18.60
2022-08-26T02:02:13.995Z,18.60
2022-08-26T02:04:48.702Z,18.60
2022-08-26T02:07:21.500Z,18.60
2022-08-26T02:09:54.782Z,18.60
2022-08-26T02:12:23.536Z,18.60
2022-08-26T02:14:55.156Z,18.50
2022-08-26T02:17:30.418Z,18.50
2022-08-26T02:19:59.847Z,18.50
2022-08-26T02:22:29.739Z,18.50
2022-08-26T02:25:02.459Z,18.50
2022-08-26T02:27:32.947Z,18.50
2022-08-26T02:30:09.217Z,18.50
2022-08-26T02:32:40.160Z,18.50
2022-08-26T02:35:10.876Z,18.50
2022-08-26T02:37:39.896Z,18.50
2022-08-26T02:40:15.358Z,18.50
2022-08-26T02:42:44.007Z,18.40
2022-08-26T02:45:13.215Z,18.40
2022-08-26T02:47:46.024Z,18.40
2022-08-26T02:50:15.396Z,18.40
2022-08-26T02:52:45.356Z,18.40
2022-08-26T02:55:15.294Z,18.40
2022-08-26T02:57:43.834Z,18.40
2022-08-26T03:00:15.226Z,18.30
2022-08-26T03:02:43.591Z,18.30
2022-08-26T03:05:12.570Z,18.20
2022-08-26T03:07:41.234Z,18.20
2022-08-26T03:10:12.654Z,18.20
2022-08-26T03:12:43.044Z,18.20
2022-08-26T03:15:18.405Z,18.10
2022-08-26T03:17:48.212Z,18.10
2022-08-26T03:20:17.600Z,18.10
2022-08-26T03:22:46.834Z,18.10
2022-08-26T03:25:17.413Z,18.10
2022-08-26T03:27:47.425Z,18.10
2022-08-26T03:30:34.477Z,18.00
2022-08-26T03:33:03.378Z,18.00
2022-08-26T03:35:32.836Z,17.90
2022-08-26T03:38:02.236Z,17.90
2022-08-26T03:40:31.402Z,17.90
2022-08-26T03:43:01.595Z,17.90
2022-08-26T03:45:30.454Z,17.90
2022-08-26T03:47:59.133Z,17.80
2022-08-26T03:50:27.988Z,17.80
2022-08-26T03:52:57.476Z,17.80
2022-08-26T03:55:28.525Z,17.80
2022-08-26T03:57:57.057Z,17.80
2022-08-26T04:00:27.588Z,17.80
2022-08-26T04:02:56.279Z,17.80
2022-08-26T04:05:25.458Z,17.70
2022-08-26T04:07:54.149Z,17.70
2022-08-26T04:10:28.475Z,17.70
2022-08-26T04:12:58.890Z,17.70
2022-08-26T04:15:29.597Z,17.60
2022-08-26T04:17:58.359Z,17.50
2022-08-26T04:20:27.523Z,17.40
2022-08-26T04:22:56.588Z,17.40
2022-08-26T04:25:25.584Z,17.40
2022-08-26T04:27:54.047Z,17.40
2022-08-26T04:30:22.655Z,17.40
2022-08-26T04:32:52.513Z,17.40
2022-08-26T04:35:25.827Z,17.40
2022-08-26T04:37:56.257Z,17.40
2022-08-26T04:40:27.735Z,17.40
2022-08-26T04:42:56.514Z,17.40
2022-08-26T04:45:25.784Z,17.40
2022-08-26T04:47:56.845Z,17.30
2022-08-26T04:50:54.841Z,17.40
2022-08-26T04:53:24.514Z,17.40
2022-08-26T04:55:55.153Z,17.40
2022-08-26T04:58:25.827Z,17.40
2022-08-26T05:00:56.452Z,17.40
2022-08-26T05:03:30.329Z,17.40
2022-08-26T05:05:59.654Z,17.50
2022-08-26T05:08:28.278Z,17.50
2022-08-26T05:10:57.222Z,17.50
2022-08-26T05:13:27.793Z,17.60
2022-08-26T05:16:00.009Z,17.60
2022-08-26T05:18:31.426Z,17.70
2022-08-26T05:20:59.906Z,17.70
2022-08-26T05:23:28.670Z,17.80
2022-08-26T05:25:59.144Z,17.90
2022-08-26T05:28:29.525Z,18.10
2022-08-26T05:30:58.310Z,18.30
2022-08-26T05:33:26.822Z,18.50
2022-08-26T05:35:59.785Z,18.60
2022-08-26T05:38:30.362Z,18.80
2022-08-26T05:40:59.123Z,18.90
2022-08-26T05:43:27.904Z,19.00
2022-08-26T05:45:56.826Z,19.10
2022-08-26T05:48:25.457Z,19.20
2022-08-26T05:50:54.744Z,19.30
2022-08-26T05:53:26.138Z,19.40
2022-08-26T05:55:56.391Z,19.50
2022-08-26T05:58:27.237Z,19.60
2022-08-26T06:01:03.842Z,19.80
2022-08-26T06:03:34.055Z,20.00
2022-08-26T06:06:05.386Z,20.30
2022-08-26T06:08:37.253Z,20.60
2022-08-26T06:11:08.166Z,20.80
2022-08-26T06:13:41.863Z,21.00
2022-08-26T06:16:13.371Z,21.20
2022-08-26T06:18:43.823Z,21.40
2022-08-26T06:21:17.004Z,21.70
2022-08-26T06:24:09.563Z,22.10
2022-08-26T06:26:38.165Z,22.40
2022-08-26T06:29:07.613Z,22.80
2022-08-26T06:31:38.443Z,23.00
2022-08-26T06:34:10.907Z,23.30
2022-08-26T06:36:41.854Z,23.60
2022-08-26T06:39:16.531Z,23.80
2022-08-26T06:41:46.261Z,23.90
2022-08-26T06:44:16.580Z,24.10
2022-08-26T06:46:45.757Z,24.40
2022-08-26T06:49:14.214Z,24.50
2022-08-26T06:51:45.744Z,24.70
2022-08-26T06:54:18.796Z,25.00
2022-08-26T06:56:47.911Z,25.30
2022-08-26T06:59:16.566Z,25.70
2022-08-26T07:01:46.751Z,26.30
2022-08-26T07:04:20.230Z,26.80
2022-08-26T07:06:52.684Z,27.10
2022-08-26T07:09:24.743Z,27.50
2022-08-26T07:11:56.213Z,27.50
2022-08-26T07:14:26.295Z,27.40
2022-08-26T07:16:55.585Z,27.30
2022-08-26T07:19:31.052Z,27.20
2022-08-26T07:22:02.283Z,27.20
2022-08-26T07:24:35.040Z,27.20
2022-08-26T07:27:05.814Z,27.30
2022-08-26T07:29:34.448Z,27.50
2022-08-26T07:32:04.388Z,27.60
2022-08-26T07:34:35.698Z,27.60
2022-08-26T07:37:04.963Z,27.60
2022-08-26T07:39:40.407Z,27.30
2022-08-26T07:42:10.715Z,27.30
2022-08-26T07:44:40.592Z,27.40
2022-08-26T07:47:10.523Z,27.40
2022-08-26T07:49:55.492Z,27.80
2022-08-26T07:52:26.996Z,27.90
2022-08-26T07:54:58.665Z,28.20
2022-08-26T07:57:27.713Z,28.30
2022-08-26T07:59:56.822Z,28.70
2022-08-26T08:02:26.009Z,28.50
2022-08-26T08:04:55.023Z,28.60
2022-08-26T08:07:38.721Z,28.40
2022-08-26T08:10:16.145Z,28.20
2022-08-26T08:12:45.060Z,28.40
2022-08-26T08:15:14.506Z,28.10
2022-08-26T08:17:44.045Z,28.20
2022-08-26T08:20:14.503Z,28.20
2022-08-26T08:22:43.714Z,28.10
2022-08-26T08:25:14.083Z,28.00
2022-08-26T08:27:48.799Z,28.20
2022-08-26T08:30:20.863Z,28.30
2022-08-26T08:32:51.832Z,28.50
2022-08-26T08:35:22.629Z,28.80
2022-08-26T08:37:54.500Z,29.10
2022-08-26T08:40:26.723Z,29.50
2022-08-26T08:43:00.927Z,29.90
2022-08-26T08:45:36.753Z,30.00
2022-08-26T08:48:08.141Z,30.10
2022-08-26T08:50:44.668Z,30.20
2022-08-26T08:53:18.733Z,30.30
2022-08-26T08:56:04.121Z,30.00
2022-08-26T08:58:50.382Z,30.00
2022-08-26T09:01:29.287Z,29.70
2022-08-26T09:04:11.735Z,29.30
2022-08-26T09:06:41.071Z,29.10
2022-08-26T09:09:21.207Z,28.90
2022-08-26T09:11:51.736Z,29.10
2022-08-26T09:14:20.044Z,29.30
2022-08-26T09:16:57.526Z,29.40
2022-08-26T09:19:31.313Z,29.80
2022-08-26T09:22:01.616Z,30.20
2022-08-26T09:24:39.556Z,30.40
2022-08-26T09:27:11.804Z,30.60
2022-08-26T09:29:44.652Z,30.60
2022-08-26T09:32:21.253Z,30.70
2022-08-26T09:34:59.275Z,31.20
2022-08-26T09:37:42.802Z,31.50
2022-08-26T09:40:20.665Z,31.90
2022-08-26T09:43:11.722Z,32.10
2022-08-26T09:45:49.936Z,32.50
2022-08-26T09:48:28.523Z,32.70
2022-08-26T09:50:59.866Z,33.00
2022-08-26T09:53:31.475Z,33.00
2022-08-26T09:56:18.455Z,33.20
2022-08-26T09:58:49.094Z,32.80
2022-08-26T10:01:27.820Z,32.50
2022-08-26T10:04:08.789Z,31.90
2022-08-26T10:06:41.664Z,32.20
2022-08-26T10:09:15.102Z,32.20
2022-08-26T10:11:47.928Z,32.40
2022-08-26T10:14:24.918Z,32.60
2022-08-26T10:16:58.455Z,32.70
2022-08-26T10:19:55.508Z,32.60
2022-08-26T10:22:30.204Z,32.60
2022-08-26T10:25:03.845Z,32.40
2022-08-26T10:27:50.993Z,32.40
2022-08-26T10:30:28.790Z,32.40
2022-08-26T10:33:03.397Z,32.60
2022-08-26T10:35:33.830Z,33.00
2022-08-26T10:38:05.535Z,33.50
2022-08-26T10:40:43.379Z,33.70
2022-08-26T10:43:17.757Z,34.00
2022-08-26T10:45:51.427Z,34.10
2022-08-26T10:48:25.792Z,33.90
2022-08-26T10:51:04.832Z,34.00
2022-08-26T10:53:51.419Z,34.10
2022-08-26T10:56:31.384Z,34.30
2022-08-26T10:59:12.524Z,34.50
2022-08-26T11:01:51.148Z,34.50
2022-08-26T11:04:30.900Z,33.90
2022-08-26T11:07:36.234Z,33.60
2022-08-26T11:10:09.282Z,32.90
2022-08-26T11:12:53.492Z,33.30
2022-08-26T11:16:08.695Z,33.00
2022-08-26T11:18:42.143Z,33.40
2022-08-26T11:21:47.692Z,33.60
2022-08-26T11:24:55.184Z,33.90
2022-08-26T11:27:54.304Z,34.30
2022-08-26T11:30:44.813Z,34.80
2022-08-26T11:34:00.247Z,35.00
2022-08-26T11:36:57.531Z,34.80
2022-08-26T11:39:29.965Z,34.80
2022-08-26T11:42:01.247Z,34.70
2022-08-26T11:44:40.566Z,34.30
2022-08-26T11:47:11.536Z,33.70
2022-08-26T11:49:41.818Z,33.80
2022-08-26T11:52:16.960Z,33.70
2022-08-26T11:55:01.400Z,33.70
2022-08-26T11:57:31.631Z,33.30
2022-08-26T12:00:01.460Z,32.90
2022-08-26T12:02:30.360Z,32.80
2022-08-26T12:04:58.944Z,33.20
2022-08-26T12:07:30.602Z,33.40
2022-08-26T12:10:02.289Z,33.00
2022-08-26T12:12:35.015Z,32.90
2022-08-26T12:15:16.568Z,32.70
2022-08-26T12:17:49.491Z,33.10
2022-08-26T12:20:30.491Z,33.30
2022-08-26T12:23:01.262Z,32.40
2022-08-26T12:25:32.935Z,32.60
2022-08-26T12:28:06.618Z,32.50
2022-08-26T12:30:35.072Z,32.40
2022-08-26T12:33:22.885Z,32.20
2022-08-26T12:35:56.522Z,32.20
2022-08-26T12:38:28.262Z,32.00
2022-08-26T12:40:58.093Z,31.60
2022-08-26T12:43:42.436Z,31.70
2022-08-26T12:46:12.992Z,31.50
2022-08-26T12:48:45.851Z,31.30
2022-08-26T12:51:25.530Z,31.20
2022-08-26T12:53:56.257Z,31.40
2022-08-26T12:56:30.019Z,31.40
2022-08-26T12:59:11.145Z,31.20
2022-08-26T13:01:44.171Z,31.40
2022-08-26T13:04:39.278Z,31.40
2022-08-26T13:07:22.351Z,31.50
2022-08-26T13:09:53.854Z,31.40
2022-08-26T13:12:30.921Z,31.50
2022-08-26T13:14:59.969Z,31.60
2022-08-26T13:17:29.741Z,31.60
2022-08-26T13:20:03.875Z,31.10
2022-08-26T13:22:33.339Z,31.00
2022-08-26T13:25:03.222Z,30.40
2022-08-26T13:27:31.768Z,30.50
2022-08-26T13:30:01.632Z,30.60
2022-08-26T13:32:30.591Z,30.80
2022-08-26T13:34:59.825Z,31.10
2022-08-26T13:37:35.918Z,31.30
2022-08-26T13:40:08.112Z,31.40
2022-08-26T13:42:36.845Z,31.50
2022-08-26T13:45:18.571Z,31.90
2022-08-26T13:47:47.403Z,32.00
2022-08-26T13:50:16.133Z,32.40
2022-08-26T13:52:44.988Z,31.90
2022-08-26T13:55:14.953Z,32.50
2022-08-26T13:57:43.662Z,33.10
2022-08-26T14:00:13.760Z,33.10
2022-08-26T14:02:42.431Z,33.20
2022-08-26T14:05:11.263Z,32.50
2022-08-26T14:07:39.972Z,32.90
2022-08-26T14:10:09.499Z,33.00
2022-08-26T14:12:40.160Z,32.80
2022-08-26T14:15:09.661Z,32.50
2022-08-26T14:17:38.672Z,32.50
2022-08-26T14:20:11.167Z,32.40
2022-08-26T14:23:03.478Z,32.70
2022-08-26T14:25:33.767Z,32.70
2022-08-26T14:28:04.072Z,33.10
2022-08-26T14:30:33.444Z,33.60
2022-08-26T14:33:02.136Z,33.60
2022-08-26T14:35:32.284Z,33.80
2022-08-26T14:38:01.221Z,33.80
2022-08-26T14:40:33.978Z,33.80
2022-08-26T14:43:09.659Z,33.60
2022-08-26T14:48:11.162Z,33.30
2022-08-26T14:50:39.949Z,32.70
2022-08-26T14:53:37.831Z,32.30
2022-08-26T14:56:06.707Z,32.40
2022-08-26T14:58:36.862Z,32.90
2022-08-26T15:01:06.834Z,32.30
2022-08-26T15:03:35.286Z,31.70
2022-08-26T15:06:04.263Z,31.80
2022-08-26T15:08:36.524Z,31.70
2022-08-26T15:11:05.352Z,32.00
2022-08-26T15:13:33.880Z,32.20
2022-08-26T15:16:04.366Z,32.00
2022-08-26T15:18:33.082Z,31.70
2022-08-26T15:21:03.384Z,30.90
2022-08-26T15:23:32.493Z,30.90
2022-08-26T15:26:01.017Z,30.90
2022-08-26T15:28:29.613Z,31.10
2022-08-26T15:30:58.356Z,30.70
2022-08-26T15:33:28.712Z,30.90
2022-08-26T15:36:00.553Z,30.70
2022-08-26T15:38:31.348Z,30.70
2022-08-26T15:41:02.955Z,31.00
2022-08-26T15:43:32.332Z,30.80
2022-08-26T15:46:01.212Z,31.10
2022-08-26T15:48:31.394Z,30.70
2022-08-26T15:51:02.684Z,30.70
2022-08-26T15:53:33.755Z,30.70
2022-08-26T15:56:03.626Z,30.60
2022-08-26T15:58:32.159Z,30.50
2022-08-26T16:01:01.546Z,30.10
2022-08-26T16:03:31.806Z,29.70
2022-08-26T16:06:00.483Z,29.40
2022-08-26T16:08:29.213Z,29.20
2022-08-26T16:11:06.025Z,28.90
2022-08-26T16:13:39.860Z,28.50
2022-08-26T16:16:10.192Z,28.30
2022-08-26T16:18:40.624Z,28.00
2022-08-26T16:21:13.297Z,27.70
2022-08-26T16:23:44.982Z,27.30
2022-08-26T16:26:18.584Z,27.00
2022-08-26T16:28:47.461Z,26.80
2022-08-26T16:31:16.656Z,26.70
2022-08-26T16:33:47.047Z,26.50
2022-08-26T16:36:16.406Z,25.70
2022-08-26T16:38:50.070Z,25.30
2022-08-26T16:41:19.030Z,24.90
2022-08-26T16:43:47.593Z,24.60
2022-08-26T16:46:17.156Z,24.60
2022-08-26T16:48:47.946Z,24.50
2022-08-26T16:51:18.769Z,24.70
2022-08-26T16:53:47.346Z,24.90
2022-08-26T16:56:16.875Z,25.10
2022-08-26T16:58:46.059Z,25.30
2022-08-26T17:01:14.693Z,25.50
2022-08-26T17:03:43.343Z,25.70
2022-08-26T17:06:14.294Z,25.70
2022-08-26T17:08:43.699Z,25.70
2022-08-26T17:11:12.598Z,25.90
2022-08-26T17:13:41.313Z,26.00
2022-08-26T17:16:11.711Z,26.00
2022-08-26T17:18:40.465Z,26.10
2022-08-26T17:21:11.358Z,26.10
2022-08-26T17:23:42.201Z,26.10
2022-08-26T17:26:12.060Z,26.10
2022-08-26T17:28:40.952Z,26.10
2022-08-26T17:31:13.086Z,26.00
2022-08-26T17:33:42.224Z,26.00
2022-08-26T17:36:11.446Z,25.90
2022-08-26T17:38:42.084Z,25.80
2022-08-26T17:41:16.057Z,25.70
2022-08-26T17:43:45.949Z,25.60
2022-08-26T17:46:14.845Z,25.50
2022-08-26T17:48:43.793Z,25.40
2022-08-26T17:51:14.738Z,25.30
2022-08-26T17:53:44.985Z,25.10
2022-08-26T17:56:15.744Z,25.00
2022-08-26T17:58:51.005Z,24.80
2022-08-26T18:01:21.166Z,24.70
2022-08-26T18:03:55.667Z,24.60
2022-08-26T18:06:28.075Z,24.50
2022-08-26T18:08:58.300Z,24.40
2022-08-26T18:11:27.268Z,24.30
2022-08-26T18:13:56.902Z,24.20
2022-08-26T18:16:25.995Z,24.10
2022-08-26T18:18:55.653Z,24.00
2022-08-26T18:21:26.758Z,23.90
2022-08-26T18:24:00.089Z,23.90
2022-08-26T18:26:31.154Z,23.80
2022-08-26T18:29:00.397Z,23.70
2022-08-26T18:31:30.343Z,23.60
2022-08-26T18:34:01.087Z,23.60
2022-08-26T18:36:31.924Z,23.50
2022-08-26T18:39:02.297Z,23.40
2022-08-26T18:41:32.585Z,23.30
2022-08-26T18:44:01.304Z,23.30
2022-08-26T18:46:30.221Z,23.30
2022-08-26T18:48:59.300Z,23.30
2022-08-26T18:51:30.806Z,23.30
2022-08-26T18:53:59.968Z,23.30
2022-08-26T18:56:30.811Z,23.30
2022-08-26T18:58:59.929Z,23.30
2022-08-26T19:01:29.850Z,23.20
2022-08-26T19:03:59.540Z,23.20
2022-08-26T19:06:29.473Z,23.20
2022-08-26T19:08:58.138Z,23.10
2022-08-26T19:11:32.189Z,23.10
2022-08-26T19:14:08.766Z,23.10
2022-08-26T19:16:38.922Z,23.10
2022-08-26T19:19:07.885Z,23.10
2022-08-26T19:21:37.764Z,23.10
2022-08-26T19:24:12.516Z,23.10
2022-08-26T19:26:41.381Z,23.00
2022-08-26T19:29:11.424Z,23.00
2022-08-26T19:31:40.225Z,23.00
2022-08-26T19:34:10.063Z,22.90
2022-08-26T19:36:39.146Z,22.80
2022-08-26T19:39:12.105Z,22.70
2022-08-26T19:41:41.213Z,22.70
2022-08-26T19:44:34.257Z,22.70
2022-08-26T19:47:03.681Z,22.60
2022-08-26T19:49:32.645Z,22.50
2022-08-26T19:52:04.298Z,22.50
2022-08-26T19:54:32.949Z,22.40
2022-08-26T19:57:01.535Z,22.30
2022-08-26T19:59:33.174Z,22.30
2022-08-26T20:02:02.281Z,22.20
2022-08-26T20:04:31.766Z,22.10
2022-08-26T20:07:01.019Z,22.10
2022-08-26T20:09:34.145Z,22.10
2022-08-26T20:12:03.784Z,22.00
2022-08-26T20:14:35.325Z,21.90
2022-08-26T20:17:04.750Z,21.90
2022-08-26T20:19:51.086Z,21.80
2022-08-26T20:22:20.214Z,21.80
2022-08-26T20:24:49.584Z,21.80
2022-08-26T20:27:18.181Z,21.70
2022-08-26T20:29:48.166Z,21.70
2022-08-26T20:32:17.013Z,21.60
2022-08-26T20:34:45.594Z,21.60
2022-08-26T20:37:14.016Z,21.60
2022-08-26T20:39:42.455Z,21.50
2022-08-26T20:42:20.072Z,21.50
2022-08-26T20:44:54.879Z,21.50
2022-08-26T20:47:24.061Z,21.50
2022-08-26T20:49:52.743Z,21.40
2022-08-26T20:52:21.494Z,21.40
2022-08-26T20:54:49.985Z,21.40
2022-08-26T20:57:18.425Z,21.40
2022-08-26T20:59:46.936Z,21.30
2022-08-26T21:02:16.754Z,21.30
2022-08-26T21:04:45.179Z,21.30
2022-08-26T21:07:13.556Z,21.30
2022-08-26T21:09:42.049Z,21.20
2022-08-26T21:12:10.756Z,21.20
2022-08-26T21:14:39.275Z,21.10
2022-08-26T21:17:07.865Z,21.10
2022-08-26T21:19:37.695Z,21.10
2022-08-26T21:22:06.387Z,21.10
2022-08-26T21:24:35.039Z,21.10
2022-08-26T21:27:03.546Z,21.10
2022-08-26T21:29:32.216Z,21.10
2022-08-26T21:32:00.673Z,21.10
2022-08-26T21:34:29.185Z,21.10
2022-08-26T21:36:59.075Z,21.10
2022-08-26T21:39:27.474Z,21.10
2022-08-26T21:41:56.034Z,21.10
2022-08-26T21:44:24.515Z,21.00
2022-08-26T21:46:53.825Z,21.00
2022-08-26T21:49:22.556Z,21.00
2022-08-26T21:51:54.955Z,21.00
2022-08-26T21:54:24.894Z,21.00
2022-08-26T21:56:55.197Z,21.00
2022-08-26T21:59:23.694Z,20.90
2022-08-26T22:01:52.484Z,20.90
2022-08-26T22:04:21.780Z,20.90
2022-08-26T22:06:57.670Z,20.90
2022-08-26T22:09:30.970Z,20.80
2022-08-26T22:12:00.474Z,20.80
2022-08-26T22:14:30.854Z,20.80
2022-08-26T22:17:00.790Z,20.80
2022-08-26T22:19:29.945Z,20.80
2022-08-26T22:21:58.804Z,20.80
2022-08-26T22:24:29.485Z,20.80
2022-08-26T22:26:58.266Z,20.70
2022-08-26T22:29:27.263Z,20.70
2022-08-26T22:31:55.780Z,20.70
2022-08-26T22:34:24.255Z,20.70
2022-08-26T22:36:52.843Z,20.70
2022-08-26T22:39:24.645Z,20.70
2022-08-26T22:41:56.878Z,20.60
2022-08-26T22:44:25.648Z,20.60
2022-08-26T22:46:55.567Z,20.70
2022-08-26T22:49:25.368Z,20.60
2022-08-26T22:51:53.815Z,20.60
2022-08-26T22:54:22.164Z,20.70
2022-08-26T22:56:50.684Z,20.70
2022-08-26T22:59:20.513Z,20.70
2022-08-26T23:01:49.425Z,20.60
2022-08-26T23:04:18.032Z,20.60
2022-08-26T23:06:47.559Z,20.60
2022-08-26T23:09:18.450Z,20.60
2022-08-26T23:11:48.455Z,20.60
2022-08-26T23:14:17.765Z,20.60
2022-08-26T23:16:47.928Z,20.50
2022-08-26T23:19:18.115Z,20.50
2022-08-26T23:21:47.147Z,20.50
2022-08-26T23:24:17.325Z,20.50
2022-08-26T23:26:46.423Z,20.50
2022-08-26T23:29:15.682Z,20.50
2022-08-26T23:31:44.706Z,20.50
2022-08-26T23:34:32.795Z,20.50
2022-08-26T23:37:06.187Z,20.40
2022-08-26T23:39:36.165Z,20.40
2022-08-26T23:42:06.135Z,20.30
2022-08-26T23:44:35.027Z,20.30
2022-08-26T23:47:04.316Z,20.20
2022-08-26T23:49:35.003Z,20.20
2022-08-26T23:52:22.161Z,20.10
2022-08-26T23:54:51.018Z,20.10
2022-08-26T23:57:20.728Z,20.10
2022-08-26T23:59:49.675Z,20.10
